Time;durP1;ratioP1;P1;durP2;ratioP2;P2;SDS_P1;SDS_P2;PMS_P1;PMS_P2;Temp;Humidity;BMP_temperature;BMP_pressure;BME280_temperature;BME280_humidity;BME280_pressure;Samples;Min_cycle;Max_cycle;Signal;HPM_P1;HPM_P2
2021/01/18 00:01:45;;;;;;;35.83;21.25;;;1.40;99.90;;;;;;5091234;28;20479;-66
2021/01/18 00:04:10;;;;;;;35.47;20.63;;;1.30;99.90;;;;;;5084530;28;20056;-65
2021/01/18 00:06:36;;;;;;;45.55;25.17;;;1.40;99.90;;;;;;5090046;28;20106;-64
2021/01/18 00:09:02;;;;;;;52.15;28.13;;;1.30;99.90;;;;;;5078510;28;20031;-63
2021/01/18 00:11:28;;;;;;;44.00;25.52;;;1.10;99.90;;;;;;5089561;28;20499;-65
2021/01/18 00:13:54;;;;;;;49.95;25.67;;;1.00;99.90;;;;;;5084557;28;20099;-65
2021/01/18 00:16:22;;;;;;;46.88;25.13;;;1.10;99.90;;;;;;5090624;28;20400;-65
2021/01/18 00:18:48;;;;;;;38.53;21.38;;;1.20;99.90;;;;;;5081302;28;20524;-66
2021/01/18 00:21:14;;;;;;;34.47;20.08;;;1.40;99.90;;;;;;5071298;28;20027;-65
2021/01/18 00:23:41;;;;;;;35.78;20.00;;;1.40;99.90;;;;;;5082057;28;20428;-65
2021/01/18 00:26:08;;;;;;;32.08;19.20;;;1.30;99.90;;;;;;5087026;28;20502;-65
2021/01/18 00:28:34;;;;;;;29.23;19.85;;;1.20;99.90;;;;;;5087335;28;20035;-65
2021/01/18 00:31:01;;;;;;;31.27;18.85;;;1.30;99.90;;;;;;5088176;28;20031;-65
2021/01/18 00:33:27;;;;;;;29.88;19.27;;;1.20;99.90;;;;;;5086274;28;20058;-65
2021/01/18 00:35:53;;;;;;;33.90;23.77;;;1.10;99.90;;;;;;5087430;28;20031;-65
2021/01/18 00:38:19;;;;;;;29.73;19.63;;;1.20;99.90;;;;;;5085356;28;20028;-67
2021/01/18 00:40:44;;;;;;;33.65;23.13;;;1.30;99.90;;;;;;5089257;28;20020;-64
2021/01/18 00:43:10;;;;;;;35.30;22.00;;;1.10;99.90;;;;;;5088378;28;20028;-64
2021/01/18 00:45:36;;;;;;;28.83;20.35;;;1.10;99.90;;;;;;5086870;28;20119;-64
2021/01/18 00:48:01;;;;;;;35.53;20.15;;;1.10;99.90;;;;;;5086094;28;20019;-65
2021/01/18 00:50:30;;;;;;;33.05;19.42;;;1.10;99.90;;;;;;5084856;28;20633;-68
2021/01/18 00:52:56;;;;;;;36.13;19.25;;;1.20;99.90;;;;;;5083941;28;20016;-64
2021/01/18 00:55:23;;;;;;;30.35;19.50;;;1.30;99.90;;;;;;5090378;28;20441;-67
2021/01/18 00:57:50;;;;;;;36.20;21.98;;;1.20;99.90;;;;;;5088030;28;20024;-65
2021/01/18 01:00:21;;;;;;;32.03;20.80;;;1.10;99.90;;;;;;5084000;28;20085;-64
2021/01/18 01:02:49;;;;;;;38.60;23.08;;;0.90;99.90;;;;;;5090305;28;20110;-65
2021/01/18 01:05:17;;;;;;;41.80;24.83;;;0.80;99.90;;;;;;5080855;28;20032;-64
2021/01/18 01:07:45;;;;;;;32.75;21.15;;;0.80;99.90;;;;;;5087886;28;20067;-65
2021/01/18 01:10:16;;;;;;;34.20;21.27;;;0.70;99.90;;;;;;5087780;28;20059;-64
2021/01/18 01:12:42;;;;;;;35.70;21.15;;;0.50;99.90;;;;;;5085471;28;20073;-64
2021/01/18 01:15:09;;;;;;;29.42;19.35;;;0.50;99.90;;;;;;5088112;28;20499;-64
2021/01/18 01:17:46;;;;;;;23.10;16.75;;;0.60;99.90;;;;;;5086236;28;20496;-64
2021/01/18 01:20:17;;;;;;;27.58;19.85;;;0.50;99.90;;;;;;5085934;28;20028;-65
2021/01/18 01:22:43;;;;;;;48.63;26.70;;;0.50;99.90;;;;;;5085293;28;20028;-64
2021/01/18 01:25:10;;;;;;;90.07;43.30;;;0.50;99.90;;;;;;5086186;28;20035;-65
2021/01/18 01:27:37;;;;;;;100.40;47.20;;;0.50;99.90;;;;;;5085806;28;20024;-64
2021/01/18 01:30:13;;;;;;;92.25;39.85;;;0.50;99.90;;;;;;5083229;28;20024;-68
2021/01/18 01:32:41;;;;;;;58.40;28.25;;;0.60;99.90;;;;;;5085599;28;20012;-64
2021/01/18 01:35:08;;;;;;;39.60;23.27;;;0.70;99.90;;;;;;5087254;28;20450;-64
2021/01/18 01:37:35;;;;;;;47.28;24.38;;;0.50;99.90;;;;;;5086264;28;20046;-64
2021/01/18 01:40:03;;;;;;;45.05;22.70;;;0.70;99.90;;;;;;5087013;28;20039;-64
2021/01/18 01:42:28;;;;;;;37.83;22.23;;;0.70;99.90;;;;;;5085847;28;20111;-65
2021/01/18 01:44:54;;;;;;;39.88;23.60;;;0.80;99.90;;;;;;5082217;28;20209;-64
2021/01/18 01:47:30;;;;;;;46.58;25.02;;;0.70;99.90;;;;;;5087618;28;20094;-64
2021/01/18 01:49:56;;;;;;;40.22;22.80;;;0.70;99.90;;;;;;5085793;28;20020;-64
2021/01/18 01:52:24;;;;;;;40.50;24.05;;;0.60;99.90;;;;;;5088091;28;20126;-63
2021/01/18 01:54:57;;;;;;;37.22;24.52;;;0.80;99.90;;;;;;5085147;28;20483;-63
2021/01/18 01:57:24;;;;;;;41.55;24.75;;;0.40;99.90;;;;;;5087718;28;20051;-64
2021/01/18 01:59:51;;;;;;;42.83;25.25;;;0.60;99.90;;;;;;5083114;28;20024;-63
2021/01/18 02:02:17;;;;;;;46.25;27.67;;;0.40;99.90;;;;;;5086451;28;20480;-63
2021/01/18 02:04:46;;;;;;;45.63;26.38;;;0.60;99.90;;;;;;5075915;28;20039;-64
2021/01/18 02:07:27;;;;;;;52.05;26.08;;;0.30;99.90;;;;;;5091367;28;20027;-64
2021/01/18 02:09:56;;;;;;;39.90;24.33;;;0.50;99.90;;;;;;5082163;28;20214;-64
2021/01/18 02:12:24;;;;;;;40.17;24.48;;;0.60;99.90;;;;;;5085219;28;20514;-64
2021/01/18 02:14:58;;;;;;;44.25;25.35;;;0.40;99.90;;;;;;5088301;28;20488;-63
2021/01/18 02:18:02;;;;;;;46.58;26.10;;;0.50;99.90;;;;;;5091528;28;20056;-64
2021/01/18 02:21:00;;;;;;;45.08;26.92;;;0.60;99.90;;;;;;5076549;28;20040;-64
2021/01/18 02:23:25;;;;;;;42.95;24.70;;;0.50;99.90;;;;;;5073489;28;20040;-64
2021/01/18 02:26:00;;;;;;;44.80;25.08;;;0.40;99.90;;;;;;5090738;28;20039;-64
2021/01/18 02:29:02;;;;;;;39.13;23.83;;;0.40;99.90;;;;;;5088209;28;20042;-63
2021/01/18 02:32:12;;;;;;;41.60;24.98;;;0.50;99.90;;;;;;5062946;28;20036;-64
2021/01/18 02:34:52;;;;;;;36.45;23.17;;;0.60;99.90;;;;;;5055448;28;20069;-64
2021/01/18 02:37:55;;;;;;;39.30;23.63;;;0.60;99.90;;;;;;5091148;28;20044;-63
2021/01/18 02:40:46;;;;;;;37.80;23.80;;;0.60;99.90;;;;;;5092365;28;20036;-63
2021/01/18 02:43:15;;;;;;;32.30;22.48;;;0.30;99.90;;;;;;5086536;28;20482;-63
2021/01/18 02:45:42;;;;;;;34.50;22.48;;;0.50;99.90;;;;;;5092506;28;20028;-64
2021/01/18 02:48:10;;;;;;;38.45;25.25;;;0.50;99.90;;;;;;5086335;28;20027;-64
2021/01/18 02:50:37;;;;;;;39.53;23.88;;;0.30;99.90;;;;;;5092397;28;20024;-64
2021/01/18 02:53:03;;;;;;;36.20;22.73;;;0.40;99.90;;;;;;5086357;28;20113;-64
2021/01/18 02:55:29;;;;;;;37.17;23.13;;;0.30;99.90;;;;;;5092486;28;20039;-64
2021/01/18 02:58:02;;;;;;;33.25;22.48;;;0.40;99.90;;;;;;5089867;28;20021;-64
2021/01/18 03:00:45;;;;;;;32.60;22.48;;;0.40;99.90;;;;;;5086936;28;20038;-63
2021/01/18 03:03:36;;;;;;;32.03;21.38;;;0.50;99.90;;;;;;5086642;28;20025;-64
2021/01/18 03:06:14;;;;;;;34.25;22.27;;;0.40;99.90;;;;;;5092313;28;20597;-63
2021/01/18 03:08:43;;;;;;;28.50;20.75;;;0.40;99.90;;;;;;5085280;28;20016;-63
2021/01/18 03:11:37;;;;;;;34.13;21.90;;;0.40;99.90;;;;;;5089012;28;20392;-63
2021/01/18 03:14:12;;;;;;;35.20;21.10;;;0.50;99.90;;;;;;5083597;28;20032;-64
2021/01/18 03:16:41;;;;;;;38.25;24.17;;;0.40;99.90;;;;;;5091737;28;20392;-66
2021/01/18 03:19:08;;;;;;;33.70;23.55;;;0.20;99.90;;;;;;5088446;28;20024;-64
2021/01/18 03:21:34;;;;;;;21.45;17.38;;;0.40;99.90;;;;;;5091380;28;20024;-64
2021/01/18 03:24:00;;;;;;;23.35;18.75;;;0.30;99.90;;;;;;5088216;28;20035;-63
2021/01/18 03:26:26;;;;;;;23.33;17.90;;;0.20;99.90;;;;;;5089378;28;20024;-63
2021/01/18 03:28:53;;;;;;;25.00;19.25;;;0.10;99.90;;;;;;5087149;28;20024;-63
2021/01/18 03:31:19;;;;;;;31.17;20.92;;;0.10;99.90;;;;;;5088150;28;20063;-63
2021/01/18 03:33:45;;;;;;;29.67;18.85;;;0.10;99.90;;;;;;5086056;28;20080;-63
2021/01/18 03:36:11;;;;;;;31.65;20.40;;;0.00;99.90;;;;;;5086967;28;20046;-64
2021/01/18 03:38:36;;;;;;;28.67;19.02;;;0.10;99.90;;;;;;5085591;28;20411;-63
2021/01/18 03:41:02;;;;;;;28.05;20.67;;;0.20;99.90;;;;;;5091928;28;20524;-63
2021/01/18 03:43:28;;;;;;;36.30;22.52;;;0.10;99.90;;;;;;5088688;28;20122;-63
2021/01/18 03:45:54;;;;;;;36.90;23.63;;;0.30;99.90;;;;;;5091541;28;20123;-63
2021/01/18 03:48:20;;;;;;;27.88;20.08;;;0.10;99.90;;;;;;5085691;28;20046;-64
2021/01/18 03:50:48;;;;;;;37.90;22.65;;;0.20;99.90;;;;;;5087110;28;20400;-65
2021/01/18 03:53:13;;;;;;;40.75;23.67;;;0.10;99.90;;;;;;5085429;28;20017;-63
2021/01/18 03:55:39;;;;;;;29.00;19.90;;;0.10;99.90;;;;;;5091468;28;20046;-64
2021/01/18 03:58:05;;;;;;;30.77;20.38;;;0.10;99.90;;;;;;5088468;28;20024;-63
2021/01/18 04:00:32;;;;;;;34.22;19.73;;;0.00;99.90;;;;;;5071575;28;20404;-63
2021/01/18 04:02:58;;;;;;;33.92;22.75;;;0.00;99.90;;;;;;5088087;28;20023;-63
2021/01/18 04:05:25;;;;;;;33.88;22.10;;;0.10;99.90;;;;;;5081903;28;20118;-64
2021/01/18 04:07:52;;;;;;;26.00;18.83;;;-0.10;99.90;;;;;;5088198;28;20440;-64
2021/01/18 04:10:20;;;;;;;29.63;19.55;;;0.00;99.90;;;;;;5089901;28;20036;-63
2021/01/18 04:12:48;;;;;;;28.05;18.85;;;0.00;99.90;;;;;;5088030;28;20039;-63
2021/01/18 04:15:16;;;;;;;33.35;20.25;;;0.10;99.90;;;;;;5089727;28;20179;-63
2021/01/18 04:17:43;;;;;;;34.13;19.80;;;0.10;99.90;;;;;;5087680;28;20037;-63
2021/01/18 04:20:10;;;;;;;27.35;19.02;;;0.00;99.90;;;;;;5085170;28;20063;-62
2021/01/18 04:22:42;;;;;;;29.30;19.23;;;0.00;99.90;;;;;;5086038;28;20056;-62
2021/01/18 04:25:09;;;;;;;28.77;19.73;;;-0.20;99.90;;;;;;5084569;28;20032;-63
2021/01/18 04:27:34;;;;;;;26.33;19.45;;;-0.10;99.90;;;;;;5087322;28;20107;-62
2021/01/18 04:30:00;;;;;;;26.00;18.17;;;-0.20;99.90;;;;;;5081375;28;20162;-62
2021/01/18 04:32:26;;;;;;;27.83;20.55;;;-0.10;99.90;;;;;;5089129;28;20060;-63
2021/01/18 04:34:51;;;;;;;29.58;18.27;;;0.00;99.90;;;;;;5082019;28;20020;-63
2021/01/18 04:37:17;;;;;;;26.88;19.02;;;0.00;99.90;;;;;;5088667;28;20025;-62
2021/01/18 04:39:42;;;;;;;26.50;18.58;;;0.00;99.90;;;;;;5086106;28;20016;-62
2021/01/18 04:42:09;;;;;;;22.98;17.67;;;-0.20;99.90;;;;;;5089793;28;20106;-63
2021/01/18 04:44:35;;;;;;;26.00;17.90;;;-0.10;99.90;;;;;;5083425;28;20044;-63
2021/01/18 04:47:02;;;;;;;24.33;17.10;;;-0.10;99.90;;;;;;5089973;28;20031;-62
2021/01/18 04:49:28;;;;;;;25.92;17.67;;;-0.10;99.90;;;;;;5084614;28;20024;-63
2021/01/18 04:51:56;;;;;;;24.63;17.48;;;0.00;99.90;;;;;;5090604;28;20031;-67
2021/01/18 04:54:24;;;;;;;25.02;17.17;;;-0.20;99.90;;;;;;5084344;28;20023;-62
2021/01/18 04:57:18;;;;;;;24.50;17.90;;;-0.20;99.90;;;;;;5071396;28;20023;-65
2021/01/18 04:59:48;;;;;;;25.05;17.38;;;-0.30;99.90;;;;;;5088944;28;20023;-62
2021/01/18 05:02:18;;;;;;;29.10;20.00;;;-0.30;99.90;;;;;;5088612;28;20028;-62
2021/01/18 05:04:46;;;;;;;25.08;17.73;;;-0.40;99.90;;;;;;5081925;28;20119;-62
2021/01/18 05:07:37;;;;;;;25.38;18.33;;;-0.60;99.90;;;;;;5088788;28;20020;-62
2021/01/18 05:10:10;;;;;;;26.10;17.65;;;-0.50;99.90;;;;;;5087276;28;20028;-62
2021/01/18 05:12:42;;;;;;;27.00;19.13;;;-0.40;99.90;;;;;;5085828;28;20031;-62
2021/01/18 05:15:10;;;;;;;26.65;18.27;;;-0.60;99.90;;;;;;5075121;28;20012;-62
2021/01/18 05:17:40;;;;;;;27.55;17.98;;;-0.40;99.90;;;;;;5100159;28;20430;-66
2021/01/18 05:20:11;;;;;;;31.83;19.58;;;-0.40;99.90;;;;;;5105959;28;20041;-63
2021/01/18 05:22:41;;;;;;;38.75;22.00;;;-0.60;99.90;;;;;;5090841;28;20035;-63
2021/01/18 05:25:07;;;;;;;31.73;18.50;;;-0.70;99.90;;;;;;5087756;28;20046;-62
2021/01/18 05:27:33;;;;;;;30.65;18.05;;;-0.70;99.90;;;;;;5087526;28;20012;-62
2021/01/18 05:29:59;;;;;;;32.35;19.23;;;-0.60;99.90;;;;;;5089275;28;20392;-64
2021/01/18 05:32:26;;;;;;;32.00;18.48;;;-0.50;99.90;;;;;;5085881;28;20107;-62
2021/01/18 05:35:12;;;;;;;28.30;18.58;;;-0.70;99.90;;;;;;5084240;28;20070;-62
2021/01/18 05:37:55;;;;;;;;;;;-0.50;99.90;;;;;;5081658;28;20040;-62
2021/01/18 05:40:25;;;;;;;32.42;19.00;;;-0.60;99.90;;;;;;5102403;28;19958;-62
2021/01/18 05:42:51;;;;;;;29.83;17.23;;;-0.40;99.90;;;;;;5084674;28;20111;-63
2021/01/18 05:45:39;;;;;;;34.97;18.38;;;-0.60;99.90;;;;;;5079352;28;20088;-62
2021/01/18 05:48:07;;;;;;;28.05;17.75;;;-0.70;99.90;;;;;;5075697;28;20020;-63
2021/01/18 05:50:33;;;;;;;31.67;17.88;;;-0.60;99.90;;;;;;5079224;28;20028;-62
2021/01/18 05:53:00;;;;;;;28.42;17.83;;;-0.70;99.90;;;;;;5092952;28;20023;-66
2021/01/18 05:55:30;;;;;;;31.42;17.55;;;-0.50;99.90;;;;;;5099976;28;20115;-66
2021/01/18 05:57:57;;;;;;;30.55;18.30;;;-0.70;99.90;;;;;;5099845;28;20032;-64
2021/01/18 06:00:23;;;;;;;33.22;19.08;;;-0.50;99.90;;;;;;5105825;28;20047;-62
2021/01/18 06:02:50;;;;;;;32.30;20.05;;;-0.60;99.90;;;;;;5082562;28;20107;-65
2021/01/18 06:05:16;;;;;;;29.38;19.48;;;-0.70;99.90;;;;;;5102132;28;20476;-62
2021/01/18 06:07:42;;;;;;;27.50;17.20;;;-0.80;99.90;;;;;;5099841;28;20020;-66
2021/01/18 06:10:08;;;;;;;30.33;17.27;;;-0.90;99.90;;;;;;5103071;28;20024;-62
2021/01/18 06:12:36;;;;;;;32.15;17.65;;;-0.80;99.90;;;;;;5100568;28;20041;-62
2021/01/18 06:15:13;;;;;;;28.23;18.75;;;-0.80;99.90;;;;;;5089306;28;20113;-62
2021/01/18 06:17:48;;;;;;;26.23;17.73;;;-0.90;99.90;;;;;;5085956;28;20027;-62
2021/01/18 06:20:22;;;;;;;24.60;16.52;;;-0.80;99.90;;;;;;5083321;28;20073;-62
2021/01/18 06:22:55;;;;;;;27.17;17.70;;;-1.00;99.90;;;;;;5086517;28;20024;-65
2021/01/18 06:25:23;;;;;;;29.35;20.05;;;-1.00;99.90;;;;;;5088687;28;20040;-61
2021/01/18 06:27:50;;;;;;;32.20;20.95;;;-1.10;99.90;;;;;;5086606;28;20027;-62
2021/01/18 06:30:36;;;;;;;38.47;22.83;;;-0.90;99.90;;;;;;5088254;28;20539;-61
2021/01/18 06:33:11;;;;;;;32.20;21.25;;;-1.00;99.90;;;;;;5086186;28;20059;-61
2021/01/18 06:35:37;;;;;;;32.13;21.58;;;-0.90;99.90;;;;;;5088424;28;20069;-61
2021/01/18 06:38:07;;;;;;;29.77;20.52;;;-1.00;99.90;;;;;;5086649;28;20063;-62
2021/01/18 06:40:39;;;;;;;30.10;19.65;;;-1.00;99.90;;;;;;5088066;28;20016;-62
2021/01/18 06:43:06;;;;;;;34.83;21.65;;;0.30;99.90;;;;;;5083591;28;20051;-63
2021/01/18 06:45:40;;;;;;;45.92;26.98;;;-0.30;99.90;;;;;;5087013;28;20039;-61
2021/01/18 06:48:08;;;;;;;64.00;32.72;;;-0.60;99.90;;;;;;5083902;28;20017;-62
2021/01/18 06:50:36;;;;;;;65.00;33.60;;;-0.70;99.90;;;;;;5085607;28;20111;-62
2021/01/18 06:53:21;;;;;;;62.47;35.97;;;-0.90;99.90;;;;;;5089293;28;20028;-61
2021/01/18 06:56:10;;;;;;;57.97;33.70;;;-1.00;99.90;;;;;;5090595;28;20047;-61
2021/01/18 06:58:51;;;;;;;61.38;34.97;;;-0.80;99.90;;;;;;5060996;28;20523;-61
2021/01/18 07:01:29;;;;;;;62.10;33.90;;;-1.00;99.90;;;;;;5091619;28;20027;-62
2021/01/18 07:04:13;;;;;;;92.07;43.97;;;-0.90;99.90;;;;;;5089415;28;20495;-61
2021/01/18 07:06:45;;;;;;;130.27;58.97;;;-1.00;99.90;;;;;;5090843;28;20739;-61
2021/01/18 07:09:16;;;;;;;143.25;62.65;;;-1.10;99.90;;;;;;5089605;28;20031;-62
2021/01/18 07:11:42;;;;;;;88.18;46.70;;;-1.20;99.90;;;;;;5088525;28;20020;-61
2021/01/18 07:14:10;;;;;;;87.22;47.08;;;-1.20;99.90;;;;;;5089444;28;20375;-61
2021/01/18 07:16:36;;;;;;;93.63;48.03;;;-1.10;99.90;;;;;;5091481;28;20057;-61
2021/01/18 07:19:04;;;;;;;111.43;55.67;;;-1.10;99.90;;;;;;5089192;28;20507;-62
2021/01/18 07:21:48;;;;;;;92.50;47.67;;;-1.00;99.90;;;;;;5091892;28;20020;-62
2021/01/18 07:24:16;;;;;;;80.28;43.50;;;-1.10;99.90;;;;;;5085599;28;20020;-62
2021/01/18 07:27:01;;;;;;;84.43;45.13;;;-1.10;99.90;;;;;;5092256;28;20024;-61
2021/01/18 07:29:26;;;;;;;89.35;47.85;;;-1.10;99.90;;;;;;5083355;28;20549;-62
2021/01/18 07:31:54;;;;;;;89.80;47.85;;;-1.10;99.90;;;;;;5092130;28;20028;-62
2021/01/18 07:34:25;;;;;;;115.90;55.50;;;-1.00;99.90;;;;;;5085964;28;20107;-61
2021/01/18 07:36:52;;;;;;;114.75;55.85;;;-1.00;99.90;;;;;;5091900;28;20077;-61
2021/01/18 07:39:27;;;;;;;97.43;51.03;;;-1.00;99.90;;;;;;5082309;28;20063;-61
2021/01/18 07:41:53;;;;;;;97.05;50.03;;;-0.10;99.90;;;;;;5092075;28;20107;-61
2021/01/18 07:44:32;;;;;;;95.10;50.35;;;-0.10;99.90;;;;;;5080946;28;20091;-61
2021/01/18 07:47:03;;;;;;;92.85;52.10;;;-0.70;99.90;;;;;;5091819;28;20024;-61
2021/01/18 07:49:48;;;;;;;80.07;45.25;;;-1.00;99.90;;;;;;5080434;28;20541;-61
2021/01/18 07:52:14;;;;;;;81.38;46.67;;;-1.10;99.90;;;;;;5089851;28;20065;-63
2021/01/18 07:54:40;;;;;;;74.03;41.55;;;-1.10;99.90;;;;;;5080085;28;20649;-61
2021/01/18 07:57:24;;;;;;;66.10;41.58;;;-1.10;99.90;;;;;;5090325;28;20020;-63
2021/01/18 08:00:10;;;;;;;67.63;36.63;;;-1.10;99.90;;;;;;5090963;28;20027;-61
2021/01/18 08:02:35;;;;;;;55.45;29.85;;;-1.10;99.90;;;;;;5085340;28;20023;-61
2021/01/18 08:05:22;;;;;;;50.13;30.98;;;-1.30;99.90;;;;;;5087130;28;20411;-61
2021/01/18 08:08:14;;;;;;;52.92;29.42;;;-1.10;99.90;;;;;;5086678;28;20016;-61
2021/01/18 08:11:02;;;;;;;59.80;33.20;;;-1.10;99.90;;;;;;5083891;28;20553;-61
2021/01/18 08:13:42;;;;;;;53.05;29.65;;;-1.10;99.90;;;;;;5085598;28;20400;-61
2021/01/18 08:16:41;;;;;;;56.13;29.80;;;-1.00;99.90;;;;;;5086882;28;20434;-61
2021/01/18 08:19:16;;;;;;;54.40;28.05;;;-1.00;99.90;;;;;;5071570;28;20028;-60
2021/01/18 08:22:07;;;;;;;59.40;29.35;;;-0.90;99.90;;;;;;5087319;28;20028;-60
2021/01/18 08:24:34;;;;;;;60.95;30.48;;;-0.90;99.90;;;;;;5087693;28;20061;-61
2021/01/18 08:27:04;;;;;;;53.97;27.25;;;-1.10;99.90;;;;;;5090544;28;20016;-61
2021/01/18 08:29:45;;;;;;;57.13;26.55;;;-0.90;99.90;;;;;;5084084;28;20035;-61
2021/01/18 08:32:30;;;;;;;62.35;29.10;;;-0.70;99.90;;;;;;5089634;28;20091;-60
2021/01/18 08:34:58;;;;;;;60.35;28.63;;;-0.60;99.90;;;;;;5084770;28;20480;-61
2021/01/18 08:37:29;;;;;;;48.38;27.73;;;-0.60;99.90;;;;;;5088984;28;20037;-61
2021/01/18 08:39:58;;;;;;;55.72;30.77;;;-0.50;99.90;;;;;;5083030;28;20488;-61
2021/01/18 08:42:28;;;;;;;78.43;40.92;;;-0.20;99.90;;;;;;5091372;28;20043;-63
2021/01/18 08:45:11;;;;;;;72.32;40.28;;;0.00;99.90;;;;;;5080125;28;20056;-63
2021/01/18 08:47:47;;;;;;;51.38;30.08;;;0.60;99.90;;;;;;5087919;28;20054;-63
2021/01/18 08:50:24;;;;;;;57.25;30.13;;;0.90;99.90;;;;;;5088103;28;20020;-63
2021/01/18 08:52:57;;;;;;;60.90;28.55;;;0.80;99.90;;;;;;5086117;28;20023;-62
2021/01/18 08:55:28;;;;;;;59.67;27.73;;;0.80;99.90;;;;;;5088668;28;20621;-61
2021/01/18 08:57:59;;;;;;;62.15;27.88;;;0.80;99.90;;;;;;5088033;28;20510;-62
2021/01/18 09:00:40;;;;;;;60.58;28.08;;;1.00;99.90;;;;;;5089337;28;20488;-62
2021/01/18 09:03:07;;;;;;;55.38;25.45;;;1.10;99.90;;;;;;5087793;28;20092;-62
2021/01/18 09:05:33;;;;;;;54.17;29.42;;;1.20;99.90;;;;;;5089445;28;20047;-62
2021/01/18 09:08:01;;;;;;;57.17;27.77;;;1.30;99.90;;;;;;5087854;28;20024;-62
2021/01/18 09:10:27;;;;;;;52.78;27.02;;;1.60;99.90;;;;;;5089380;28;20552;-62
2021/01/18 09:12:53;;;;;;;56.42;28.67;;;1.70;99.90;;;;;;5088172;28;20051;-62
2021/01/18 09:15:20;;;;;;;59.30;30.75;;;2.00;99.90;;;;;;5089349;28;20028;-62
2021/01/18 09:17:48;;;;;;;60.95;28.27;;;1.70;99.90;;;;;;5086349;28;20094;-62
2021/01/18 09:20:15;;;;;;;53.50;30.08;;;1.80;99.90;;;;;;5083299;28;20095;-63
2021/01/18 09:22:43;;;;;;;48.78;26.92;;;1.90;99.90;;;;;;5087330;28;20023;-62
2021/01/18 09:25:10;;;;;;;45.88;27.52;;;2.10;99.90;;;;;;5083924;28;20093;-64
2021/01/18 09:27:37;;;;;;;46.10;27.27;;;2.40;99.90;;;;;;5081641;28;20082;-63
2021/01/18 09:30:04;;;;;;;44.80;27.05;;;2.20;99.90;;;;;;5087318;28;20028;-63
2021/01/18 09:32:30;;;;;;;47.92;26.67;;;2.50;99.90;;;;;;5084361;28;20108;-64
2021/01/18 09:35:04;;;;;;;36.90;23.38;;;2.50;99.90;;;;;;5087760;28;20111;-64
2021/01/18 09:37:30;;;;;;;43.22;23.25;;;2.90;99.90;;;;;;5086764;28;20193;-65
2021/01/18 09:39:56;;;;;;;47.72;21.75;;;3.00;99.90;;;;;;5070217;28;20609;-64
2021/01/18 09:42:21;;;;;;;40.38;23.42;;;3.30;99.90;;;;;;5087234;28;20024;-60
2021/01/18 09:44:48;;;;;;;38.83;22.50;;;3.50;99.90;;;;;;5082736;28;20043;-60
2021/01/18 09:47:15;;;;;;;36.80;20.05;;;3.50;99.90;;;;;;5085754;28;20507;-60
2021/01/18 09:49:41;;;;;;;32.53;20.20;;;3.50;99.90;;;;;;5082983;28;20040;-61
2021/01/18 09:52:08;;;;;;;39.90;20.55;;;3.70;99.90;;;;;;5088101;28;20070;-60
2021/01/18 09:54:38;;;;;;;34.22;18.65;;;3.70;99.90;;;;;;5086016;28;20387;-61
2021/01/18 09:57:10;;;;;;;35.13;18.40;;;4.00;99.90;;;;;;5087704;28;20020;-61
2021/01/18 09:59:40;;;;;;;36.90;18.80;;;4.20;99.90;;;;;;5078713;28;20054;-61
2021/01/18 10:02:11;;;;;;;34.20;18.90;;;4.20;99.90;;;;;;5088038;28;20008;-62
2021/01/18 10:04:39;;;;;;;38.95;18.65;;;4.20;99.90;;;;;;5082633;28;20431;-62
2021/01/18 10:07:09;;;;;;;36.80;18.75;;;4.40;99.90;;;;;;5088009;28;20008;-62
2021/01/18 10:09:35;;;;;;;37.15;17.08;;;4.20;99.90;;;;;;5083504;28;20553;-61
2021/01/18 10:12:04;;;;;;;36.10;16.85;;;4.10;99.90;;;;;;5088589;28;20028;-61
2021/01/18 10:14:30;;;;;;;39.38;18.95;;;4.10;99.90;;;;;;5082848;28;20091;-62
2021/01/18 10:16:57;;;;;;;38.70;18.67;;;4.70;99.90;;;;;;5089329;28;20445;-62
2021/01/18 10:19:22;;;;;;;33.53;16.92;;;4.80;99.90;;;;;;5082105;28;20040;-62
2021/01/18 10:21:48;;;;;;;37.72;17.50;;;4.90;99.90;;;;;;5089014;28;20063;-61
2021/01/18 10:24:34;;;;;;;34.05;16.25;;;4.90;99.90;;;;;;5082356;28;20074;-61
2021/01/18 10:27:12;;;;;;;34.65;16.70;;;5.00;99.90;;;;;;5091056;28;20111;-61
2021/01/18 10:29:40;;;;;;;27.90;16.17;;;5.00;99.90;;;;;;5088131;28;20071;-62
2021/01/18 10:32:07;;;;;;;36.63;16.85;;;5.30;99.90;;;;;;5092910;28;20017;-62
2021/01/18 10:34:34;;;;;;;33.08;16.77;;;5.50;99.90;;;;;;5086788;28;20437;-61
2021/01/18 10:37:18;;;;;;;38.42;16.52;;;5.40;99.90;;;;;;5093462;28;20781;-63
2021/01/18 10:39:47;;;;;;;38.35;15.63;;;5.40;99.90;;;;;;5088775;28;20030;-63
2021/01/18 10:42:16;;;;;;;32.28;15.13;;;5.50;99.90;;;;;;5091399;28;20545;-66
2021/01/18 10:44:55;;;;;;;31.70;14.20;;;5.90;99.90;;;;;;5091873;28;20048;-63
2021/01/18 10:47:24;;;;;;;32.17;15.07;;;6.50;99.90;;;;;;5090630;28;20535;-62
2021/01/18 10:49:58;;;;;;;33.45;14.45;;;6.30;99.90;;;;;;5091899;28;20020;-62
2021/01/18 10:52:41;;;;;;;36.50;14.75;;;6.40;99.90;;;;;;5091021;28;20107;-62
2021/01/18 10:55:11;;;;;;;36.55;15.00;;;6.50;99.90;;;;;;5078843;28;20012;-62
2021/01/18 10:57:42;;;;;;;39.55;14.40;;;6.60;99.90;;;;;;5090493;28;20032;-62
2021/01/18 11:00:15;;;;;;;38.33;16.13;;;6.90;99.90;;;;;;5089641;28;20013;-61
2021/01/18 11:02:42;;;;;;;33.10;14.73;;;7.00;99.90;;;;;;5089664;28;20020;-62
2021/01/18 11:05:10;;;;;;;36.50;15.70;;;7.40;99.90;;;;;;5085095;28;20499;-62
2021/01/18 11:07:45;;;;;;;43.97;15.90;;;7.40;99.90;;;;;;5090305;28;20430;-62
2021/01/18 11:10:11;;;;;;;36.83;15.00;;;7.40;99.90;;;;;;5089038;28;20077;-62
2021/01/18 11:12:38;;;;;;;35.22;14.15;;;7.60;99.90;;;;;;5091754;28;20445;-65
2021/01/18 11:15:12;;;;;;;40.88;13.75;;;7.80;99.90;;;;;;5084982;28;20074;-62
2021/01/18 11:17:39;;;;;;;42.95;13.95;;;7.90;99.90;;;;;;5089813;28;20028;-69
2021/01/18 11:20:06;;;;;;;34.65;13.95;;;8.00;99.90;;;;;;5079416;28;20029;-64
2021/01/18 11:22:33;;;;;;;36.10;13.85;;;8.10;99.90;;;;;;5089869;28;20012;-64
2021/01/18 11:24:59;;;;;;;36.60;13.55;;;8.10;99.90;;;;;;5089760;28;20039;-65
2021/01/18 11:27:25;;;;;;;32.42;12.02;;;8.50;99.90;;;;;;5088048;28;20173;-66
2021/01/18 11:29:50;;;;;;;29.05;11.90;;;9.20;99.90;;;;;;5086873;28;20029;-65
2021/01/18 11:32:16;;;;;;;31.90;11.18;;;9.20;99.90;;;;;;5086226;28;20020;-64
2021/01/18 11:34:42;;;;;;;32.13;12.02;;;9.00;99.90;;;;;;5085851;28;20549;-64
2021/01/18 11:37:09;;;;;;;26.33;10.75;;;9.40;99.90;;;;;;5090826;28;20091;-67
2021/01/18 11:39:35;;;;;;;24.50;11.60;;;9.60;99.90;;;;;;5083629;28;20481;-63
2021/01/18 11:42:02;;;;;;;29.95;9.75;;;9.30;99.90;;;;;;5091188;28;20024;-64
2021/01/18 11:44:28;;;;;;;31.70;9.60;;;9.40;99.90;;;;;;5088981;28;20130;-63
2021/01/18 11:47:01;;;;;;;26.27;9.60;;;9.20;99.90;;;;;;5090714;28;20099;-64
2021/01/18 11:49:27;;;;;;;21.13;7.90;;;9.10;99.90;;;;;;5089188;28;20046;-67
2021/01/18 11:51:57;;;;;;;23.10;8.05;;;9.60;99.90;;;;;;5089000;28;20432;-63
2021/01/18 11:54:24;;;;;;;24.52;8.35;;;9.80;99.90;;;;;;5089878;28;20020;-66
2021/01/18 11:56:50;;;;;;;23.05;7.72;;;9.90;99.90;;;;;;5091175;28;20109;-65
2021/01/18 11:59:16;;;;;;;15.52;6.93;;;10.20;99.90;;;;;;5088186;28;20615;-65
2021/01/18 12:01:42;;;;;;;12.35;6.85;;;10.10;99.90;;;;;;5090747;28;20081;-64
2021/01/18 12:04:09;;;;;;;13.23;6.93;;;10.40;99.90;;;;;;5089682;28;20032;-63
2021/01/18 12:06:39;;;;;;;18.33;8.25;;;10.20;99.90;;;;;;5086679;28;20039;-64
2021/01/18 12:09:06;;;;;;;13.25;8.20;;;10.40;99.90;;;;;;5087229;28;20031;-65
2021/01/18 12:11:39;;;;;;;21.27;8.35;;;10.70;99.90;;;;;;5090823;28;20027;-64
2021/01/18 12:14:08;;;;;;;21.25;8.98;;;11.10;99.90;;;;;;5089098;28;20024;-68
2021/01/18 12:16:34;;;;;;;17.38;8.20;;;11.00;99.90;;;;;;5090977;28;20028;-67
2021/01/18 12:19:00;;;;;;;13.95;7.80;;;11.20;99.90;;;;;;5083756;28;20111;-65
2021/01/18 12:21:26;;;;;;;14.35;7.97;;;10.90;99.90;;;;;;5090754;28;20027;-72
2021/01/18 12:23:52;;;;;;;15.48;7.80;;;11.10;99.90;;;;;;5081639;28;20046;-63
2021/01/18 12:26:22;;;;;;;18.65;7.80;;;11.40;99.90;;;;;;5080927;28;20024;-63
2021/01/18 12:28:49;;;;;;;17.83;7.32;;;11.50;99.90;;;;;;5084268;28;20407;-63
2021/01/18 12:31:15;;;;;;;16.70;7.63;;;11.80;99.90;;;;;;5090800;28;20027;-63
2021/01/18 12:33:41;;;;;;;15.00;6.95;;;11.90;99.90;;;;;;5085554;28;20235;-63
2021/01/18 12:36:07;;;;;;;14.73;5.28;;;12.30;99.90;;;;;;5091214;28;20247;-64
2021/01/18 12:38:33;;;;;;;18.35;5.43;;;12.30;99.90;;;;;;5084621;28;20051;-63
2021/01/18 12:40:59;;;;;;;14.70;5.43;;;12.00;99.90;;;;;;5089892;28;20020;-61
2021/01/18 12:43:25;;;;;;;13.10;4.75;;;12.40;99.90;;;;;;5071901;28;20093;-66
2021/01/18 12:45:50;;;;;;;13.48;4.32;;;12.70;99.90;;;;;;5083535;28;20059;-63
2021/01/18 12:48:17;;;;;;;13.10;4.68;;;12.30;99.90;;;;;;5087818;28;20459;-64
2021/01/18 12:50:44;;;;;;;11.70;4.38;;;12.20;99.90;;;;;;5089416;28;20020;-63